Terminal Aerodrome Forecast
Issued by NWS

Home | Current Version | Previous Version | Text Only | Print | Product List | Glossary On
Versions: 1 2 3 4 5 6 7 8 9 10 11 12
000
FTUS44 KEPZ 012300
TAFTCS
TAF
KTCS 012336Z 0200/0224 20012G20KT P6SM SKC
     FM020200 24009KT P6SM SKC
     FM020500 30007KT P6SM SKC
     FM021100 33012G20KT P6SM FEW070=

USA.gov is the U.S. government's official web portal to all federal, state and local government web resources and services.